»·PEaware :: AAL574 KSEA-KPDX

AAL574 :: KSEA-KPDX

FLIGHT INFORMATION

Flight Status: Arrived
Operator:
American Airlines
More flights by this operator :: More flights under this callsign
Pilot: Drew M. (13549)
Aircraft: AIRBUS A320
(A320)
More flights by this aircraft type
Origin: KSEA Seattle-Tacoma Intl
United States
Destination: KPDX Portland Intl
United States
More flights between these airports :: More routes between these airports
Route: +SEA6 BUWZO KRATR2
File this flight plan on PilotEdge
Remarks:
Altitude:
(Current/Filed)
17,000ft
Speed:
(Current/Filed)
450kts
Departed: 12-Jan-18 09:53 AM
Arrived: 12-Jan-18 10:22 AM
Distance/Time
Traveled:
112nm/0:29
Distance/Time
To Go:
Arrived

Flight Plot

Page will automatically refresh every two minutes.

Flight plan parsing failed; only flown route is shown


Map Options




Map Legend


Flown Route
Filed Route
Departure Airport
Arrival Airport
Navaid (VOR, NDB)
Fix

Horizontal Profiles

Position Reports

Time Latitude Longitude Heading Altitude Ground
Speed
12-Jan-18 09:30 47.449232 -122.303967 180 337ft 0kts
12-Jan-18 09:31 47.449232 -122.303967 180 337ft 0kts
12-Jan-18 09:32 47.449232 -122.303967 180 337ft 0kts
12-Jan-18 09:33 47.449232 -122.303967 180 337ft 0kts
12-Jan-18 09:34 47.449232 -122.303967 180 337ft 0kts
12-Jan-18 09:35 47.449232 -122.303967 180 337ft 0kts
12-Jan-18 09:36 47.449232 -122.303967 180 337ft 0kts
12-Jan-18 09:37 47.449232 -122.303967 180 337ft 0kts
12-Jan-18 09:38 47.449232 -122.303967 180 337ft 0kts
12-Jan-18 09:39 47.449232 -122.303967 180 337ft 0kts
12-Jan-18 09:40 47.449232 -122.303967 180 337ft 0kts
12-Jan-18 09:41 47.449232 -122.303967 180 337ft 0kts
12-Jan-18 09:42 47.449232 -122.303967 180 337ft 0kts
12-Jan-18 09:43 47.449232 -122.303967 180 337ft 0kts
12-Jan-18 09:44 47.449232 -122.303967 180 337ft 0kts
12-Jan-18 09:45 47.449278 -122.303967 179 338ft 2kts
12-Jan-18 09:46 47.449695 -122.303438 264 338ft 1kts
12-Jan-18 09:47 47.449698 -122.303309 268 338ft 0kts
12-Jan-18 09:48 47.449698 -122.303309 268 338ft 0kts
12-Jan-18 09:49 47.449698 -122.303309 268 338ft 0kts
12-Jan-18 09:50 47.449698 -122.303309 268 338ft 0kts
12-Jan-18 09:51 47.449698 -122.303309 268 338ft 0kts
12-Jan-18 09:52 47.449698 -122.303309 268 338ft 0kts
12-Jan-18 09:53 47.449691 -122.303982 269 337ft 7kts
12-Jan-18 09:54 47.453227 -122.306240 0 337ft 28kts
12-Jan-18 09:55 47.462247 -122.306128 0 338ft 31kts
12-Jan-18 09:56 47.463597 -122.306324 317 338ft 0kts
12-Jan-18 09:57 47.463597 -122.306324 317 338ft 0kts
12-Jan-18 09:58 47.463606 -122.306336 317 338ft 0kts
12-Jan-18 09:59 47.455072 -122.307829 180 339ft 134kts
12-Jan-18 10:00 47.399600 -122.310246 182 3583ft 225kts
12-Jan-18 10:01 47.330802 -122.313036 182 7067ft 263kts
12-Jan-18 10:02 47.257662 -122.313354 182 9002ft 272kts
12-Jan-18 10:03 47.182588 -122.313044 182 9017ft 273kts
12-Jan-18 10:04 47.106484 -122.312032 181 9952ft 278kts
12-Jan-18 10:05 47.022392 -122.310896 182 11926ft 342kts
12-Jan-18 10:06 46.937539 -122.309775 184 13152ft 386kts
12-Jan-18 10:07 46.817367 -122.309748 185 15430ft 405kts
12-Jan-18 10:08 46.722871 -122.309697 185 17053ft 417kts
12-Jan-18 10:09 46.605097 -122.309712 186 18738ft 432kts
12-Jan-18 10:10 46.483410 -122.309742 186 19366ft 449kts
12-Jan-18 10:11 46.359399 -122.309652 186 19393ft 448kts
12-Jan-18 10:12 46.243486 -122.317183 205 17081ft 388kts
12-Jan-18 10:13 46.147727 -122.370401 205 12483ft 359kts
12-Jan-18 10:14 46.061421 -122.418590 205 10996ft 327kts
12-Jan-18 10:15 45.979051 -122.463619 204 10735ft 285kts
12-Jan-18 10:16 45.904002 -122.480170 171 8001ft 286kts
12-Jan-18 10:17 45.829836 -122.456402 170 6568ft 332kts
12-Jan-18 10:18 45.732994 -122.425706 170 6326ft 345kts
12-Jan-18 10:19 45.646078 -122.398013 170 5378ft 299kts
12-Jan-18 10:20 45.588390 -122.330426 128 5748ft 252kts
12-Jan-18 10:21 45.548428 -122.255165 153 6006ft 230kts
12-Jan-18 10:22 45.492587 -122.271394 223 5125ft 210kts
12-Jan-18 10:23 45.497213 -122.344597 297 4289ft 206kts
12-Jan-18 10:24 45.521534 -122.407180 296 3040ft 164kts
12-Jan-18 10:25 45.541338 -122.458270 296 3000ft 145kts
12-Jan-18 10:26 45.560944 -122.508697 295 1537ft 149kts
12-Jan-18 10:27 45.580741 -122.559546 297 116ft 141kts
12-Jan-18 10:28 45.590330 -122.586242 270 34ft 18kts
12-Jan-18 10:29 45.590326 -122.586836 269 34ft 0kts
12-Jan-18 10:30 45.590320 -122.587093 267 34ft 12kts
12-Jan-18 10:31 45.592271 -122.594566 299 34ft 24kts
12-Jan-18 10:32 45.590617 -122.596889 84 34ft 11kts
12-Jan-18 10:33 45.590919 -122.596335 15 34ft 0kts
12-Jan-18 10:34 45.590919 -122.596335 15 34ft 0kts

Navigation Log

Ident Type
Flight plan parsing failed, navigation log unavailable